N0,26 Fumimaru — JK5398 — position and weather

sailwx.info

Track history (hours):
 
Tides and Currents Weather Stations Pressure Air Temp Water Temp Dewpoint Dewpoint Depression Visibility Wind Speed Wind Dir Waves Ship Positions

N0,26 Fumimaru

Last reported at 2014-Aug-25 11:31 UTC. Time now 2014-Aug-29 03:36 UTC.
Position N 35°02' E 139°44'.

Length 39 m; draft 3.6 m.

Type: Ship. MMSI: 431400427.

Date/timePositionNaut miles runAvg speedWind from/ knotsBaromVisibWave heightAir tempDewpointWater temp
2014-Aug-25 11:31N 35°02' E 139°44'5 5.2
2014-Aug-25 10:33N 35°07' E 139°45'5 5.1
2014-Aug-25 09:33N 35°12' E 139°46'6 5.5
2014-Aug-25 08:32N 35°17' E 139°45'6 5.3
2014-Aug-25 07:20N 35°23' E 139°42'4 5.3
2014-Aug-25 06:29N 35°27' E 139°46'5 5.2
2014-Aug-25 05:32N 35°29' E 139°51'5 5.1
2014-Aug-25 04:33N 35°33' E 139°55'5 5.1
2014-Aug-25 03:33N 35°37' E 139°58'3 3.0
2014-Aug-25 02:33N 35°40' E 139°59'8 8.0
2014-Aug-25 01:33N 35°36' E 139°51'3 2.1
2014-Aug-25 00:20N 35°37' E 139°48'0 0.0
2014-Aug-24 23:32N 35°37' E 139°48'0 0.0
2014-Aug-24 22:32N 35°37' E 139°48'0 0.0
2014-Aug-24 21:32N 35°37' E 139°48'0 0.0
2014-Aug-24 20:33N 35°37' E 139°48'0 0.0
2014-Aug-24 19:30N 35°37' E 139°48'0 0.0
2014-Aug-24 18:33N 35°37' E 139°48'0 0.0
2014-Aug-24 17:30N 35°37' E 139°48'0 0.0
2014-Aug-24 16:33N 35°37' E 139°48'0 0.0
2014-Aug-24 15:33N 35°37' E 139°48'0 0.0
2014-Aug-24 14:27N 35°37' E 139°48'0 0.0
2014-Aug-24 13:27N 35°37' E 139°48'0 0.0
2014-Aug-24 12:30N 35°37' E 139°48'0 0.0
2014-Aug-24 11:24N 35°37' E 139°48'0 0.0
2014-Aug-24 10:29N 35°37' E 139°48'0 0.0
2014-Aug-24 09:29N 35°37' E 139°48'0 0.0
2014-Aug-24 08:26N 35°37' E 139°48'0 0.0
2014-Aug-24 07:29N 35°37' E 139°48'0 0.0
2014-Aug-24 06:32N 35°37' E 139°48'0 0.0
2014-Aug-24 05:32N 35°37' E 139°48'0 0.0
2014-Aug-24 04:29N 35°37' E 139°48'0 0.0
2014-Aug-24 03:32N 35°37' E 139°48'0 0.0
2014-Aug-24 02:26N 35°37' E 139°48'0 0.0
2014-Aug-24 01:32N 35°37' E 139°48'0 0.0
2014-Aug-24 00:29N 35°37' E 139°48'0 0.0
2014-Aug-23 23:23N 35°37' E 139°48'0 0.0
2014-Aug-23 22:17N 35°37' E 139°48'0 0.0
2014-Aug-23 21:26N 35°37' E 139°48'0 0.0
2014-Aug-23 20:32N 35°37' E 139°48'0 0.0
2014-Aug-23 19:32N 35°37' E 139°48'0 0.0
2014-Aug-23 03:29N 35°37' E 139°48'0 0.0
2014-Aug-23 02:23N 35°37' E 139°48'0 0.0
2014-Aug-23 01:23N 35°37' E 139°48'0 0.0
2014-Aug-23 00:32N 35°37' E 139°48'0 0.0
2014-Aug-22 23:29N 35°37' E 139°48'0 0.0
2014-Aug-22 22:29N 35°37' E 139°48'0 0.0
2014-Aug-22 21:05N 35°37' E 139°48'0 0.0
2014-Aug-22 20:29N 35°37' E 139°48'0 0.0
2014-Aug-22 19:32N 35°37' E 139°48'0 0.0
2014-Aug-22 18:17N 35°37' E 139°48'0 0.0
2014-Aug-22 17:32N 35°37' E 139°48'0 0.0
2014-Aug-22 16:26N 35°37' E 139°48'0 0.0
2014-Aug-22 15:29N 35°37' E 139°48'0 0.0
2014-Aug-22 14:26N 35°37' E 139°48'0 0.0
2014-Aug-22 13:32N 35°37' E 139°48'0 0.0
2014-Aug-22 12:11N 35°37' E 139°48'0 0.0
2014-Aug-22 11:23N 35°37' E 139°48'0 0.0
2014-Aug-22 10:23N 35°37' E 139°48'0 0.0
2014-Aug-22 09:29N 35°37' E 139°48'0 0.0
2014-Aug-22 07:29N 35°37' E 139°48'0 0.0
2014-Aug-22 06:29N 35°37' E 139°48'0 0.0
2014-Aug-22 05:23N 35°37' E 139°48'0 0.0
2014-Aug-22 04:29N 35°37' E 139°48'0 0.0
2014-Aug-22 03:32N 35°37' E 139°48'0 0.0
2014-Aug-22 02:11N 35°37' E 139°48'0 0.0
2014-Aug-22 01:17N 35°37' E 139°48'0 0.0
2014-Aug-22 00:29N 35°37' E 139°48'0 0.0
2014-Aug-21 22:29N 35°37' E 139°48'0 0.0
2014-Aug-21 21:29N 35°37' E 139°48'0 0.0
2014-Aug-21 20:18N 35°37' E 139°48'0 0.0
2014-Aug-21 19:33N 35°37' E 139°48'0 0.0
2014-Aug-21 18:33N 35°37' E 139°48'0 0.0
2014-Aug-21 17:33N 35°37' E 139°48'0 0.0
2014-Aug-21 16:33N 35°37' E 139°48'0 0.0
2014-Aug-21 15:15N 35°37' E 139°48'0 0.0
2014-Aug-21 14:33N 35°37' E 139°48'0 0.0
2014-Aug-21 13:27N 35°37' E 139°48'0 0.0
2014-Aug-21 11:21N 35°37' E 139°48'0 0.0
2014-Aug-21 10:21N 35°37' E 139°48'0 0.0
2014-Aug-21 09:21N 35°37' E 139°48'0 0.0
2014-Aug-21 08:33N 35°37' E 139°48'0 0.0
2014-Aug-21 07:21N 35°37' E 139°48'0 0.0
2014-Aug-21 06:33N 35°37' E 139°48'0 0.0
2014-Aug-21 05:33N 35°37' E 139°48'0 0.0
2014-Aug-21 04:33N 35°37' E 139°48'0 0.0
2014-Aug-21 03:21N 35°37' E 139°48'1 1.6
2014-Aug-21 02:33N 35°37' E 139°49'9 8.6
2014-Aug-21 01:33N 35°28' E 139°47'9 9.3
2014-Aug-21 00:33N 35°23' E 139°38'3 3.5
2014-Aug-20 23:33N 35°22' E 139°42'6 5.6
2014-Aug-20 22:32N 35°17' E 139°45'5 4.9
2014-Aug-20 21:31N 35°12' E 139°47'5 4.9
2014-Aug-20 20:33N 35°07' E 139°47'6 5.9
2014-Aug-20 19:33N 35°02' E 139°45'2 0.1
2014-Aug-19 13:03N 34°60' E 139°44'610.8
2014-Aug-19 12:32N 35°05' E 139°45'1010.3
2014-Aug-19 11:32N 35°15' E 139°46'10 9.4
2014-Aug-19 10:30N 35°25' E 139°44'9 9.9
2014-Aug-19 09:32N 35°31' E 139°52'7 3.1
2014-Aug-19 07:14N 35°37' E 139°48'3 0.5
2014-Aug-19 01:33N 35°35' E 139°50'6 5.6
2014-Aug-19 00:33N 35°37' E 139°57'4 3.6
2014-Aug-18 23:27N 35°40' E 139°59'4 4.7
2014-Aug-18 22:33N 35°37' E 139°57'7 6.9
2014-Aug-18 21:31N 35°37' E 139°48'0 0.0
2014-Aug-18 20:31N 35°37' E 139°48'0 0.0
2014-Aug-18 19:13N 35°37' E 139°48'0 0.0
2014-Aug-18 18:31N 35°37' E 139°48'0 0.0
2014-Aug-18 17:10N 35°37' E 139°48'0 0.0
2014-Aug-18 16:31N 35°37' E 139°48'0 0.0
2014-Aug-18 15:31N 35°37' E 139°48'0 0.0
2014-Aug-18 14:25N 35°37' E 139°48'0 0.0
2014-Aug-18 13:31N 35°37' E 139°48'0 0.0
2014-Aug-18 12:31N 35°37' E 139°48'0 0.0
2014-Aug-18 11:25N 35°37' E 139°48'0 0.0
2014-Aug-18 10:31N 35°37' E 139°48'0 0.0
2014-Aug-18 09:25N 35°37' E 139°48'0 0.0
2014-Aug-18 08:31N 35°37' E 139°48'0 0.0
2014-Aug-18 07:28N 35°37' E 139°48'0 0.0
2014-Aug-18 06:19N 35°37' E 139°48'0 0.0
2014-Aug-18 05:31N 35°37' E 139°48'0 0.0
2014-Aug-18 04:28N 35°37' E 139°48'0 0.0
2014-Aug-18 03:28N 35°37' E 139°48'0 0.0
2014-Aug-18 02:31N 35°37' E 139°48'0 0.0
2014-Aug-18 01:31N 35°37' E 139°48'0 0.0
2014-Aug-18 00:28N 35°37' E 139°48'0 0.0
2014-Aug-17 18:31N 35°37' E 139°48'0 0.0
2014-Aug-17 17:31N 35°37' E 139°48'0 0.0
2014-Aug-17 16:13N 35°37' E 139°48'0 0.0
2014-Aug-17 15:28N 35°37' E 139°48'0 0.0
2014-Aug-17 14:31N 35°37' E 139°48'0 0.0
2014-Aug-17 13:31N 35°37' E 139°48'0 0.0
2014-Aug-17 12:31N 35°37' E 139°48'0 0.0
2014-Aug-17 11:31N 35°37' E 139°48'0 0.0
2014-Aug-17 10:31N 35°37' E 139°48'0 0.0
2014-Aug-17 09:25N 35°37' E 139°48'0 0.0
2014-Aug-17 08:31N 35°37' E 139°48'0 0.0
2014-Aug-17 07:31N 35°37' E 139°48'0 0.0
2014-Aug-17 06:31N 35°37' E 139°48'0 0.0
2014-Aug-17 05:25N 35°37' E 139°48'0 0.0
2014-Aug-17 04:28N 35°37' E 139°48'0 0.0
2014-Aug-17 03:31N 35°37' E 139°48'0 0.0
2014-Aug-17 02:31N 35°37' E 139°48'0 0.0
2014-Aug-17 01:22N 35°37' E 139°48'0 0.0
2014-Aug-17 00:31N 35°37' E 139°48'0 0.0
2014-Aug-16 23:31N 35°37' E 139°48'0 0.0
2014-Aug-16 22:28N 35°37' E 139°48'0 0.0
2014-Aug-16 21:31N 35°37' E 139°48'0 0.0
2014-Aug-16 20:28N 35°37' E 139°48'0 0.0
2014-Aug-16 19:28N 35°37' E 139°48'0 0.0
2014-Aug-16 18:28N 35°37' E 139°48'0 0.0
2014-Aug-16 17:19N 35°37' E 139°48'0 0.0
2014-Aug-16 16:31N 35°37' E 139°48'0 0.0
2014-Aug-16 15:31N 35°37' E 139°48'0 0.0
2014-Aug-16 14:31N 35°37' E 139°48'0 0.0
2014-Aug-16 13:31N 35°37' E 139°48'0 0.0
2014-Aug-16 12:31N 35°37' E 139°48'0 0.0
2014-Aug-16 11:31N 35°37' E 139°48'0 0.0
2014-Aug-16 10:28N 35°37' E 139°48'0 0.0
2014-Aug-16 09:31N 35°37' E 139°48'0 0.0
2014-Aug-16 08:31N 35°37' E 139°48'0 0.0
2014-Aug-16 07:28N 35°37' E 139°48'0 0.0
2014-Aug-16 06:28N 35°37' E 139°48'0 0.0
2014-Aug-16 05:31N 35°37' E 139°48'0 0.0
2014-Aug-16 04:25N 35°37' E 139°48'0 0.0
2014-Aug-16 03:31N 35°37' E 139°48'0 0.0
2014-Aug-16 02:31N 35°37' E 139°48'0 0.0
2014-Aug-16 01:25N 35°37' E 139°48'0 0.0
2014-Aug-16 00:31N 35°37' E 139°48'0 0.0
2014-Aug-15 23:25N 35°37' E 139°48'0 0.0
2014-Aug-15 22:28N 35°37' E 139°48'0 0.0
2014-Aug-15 21:28N 35°37' E 139°48'0 0.0
2014-Aug-15 20:31N 35°37' E 139°48'0 0.0
2014-Aug-15 19:13N 35°37' E 139°48'0 0.0
2014-Aug-15 18:31N 35°37' E 139°48'0 0.0
2014-Aug-15 17:31N 35°37' E 139°48'0 0.0
2014-Aug-15 16:31N 35°37' E 139°48'0 0.0
2014-Aug-15 15:31N 35°37' E 139°48'0 0.0
2014-Aug-15 14:25N 35°37' E 139°48'0 0.0
2014-Aug-15 13:25N 35°37' E 139°48'0 0.0
2014-Aug-15 12:31N 35°37' E 139°48'  
Track history (hours):
 
Tides and Currents Weather Stations Pressure Air Temp Water Temp Dewpoint Dewpoint Depression Visibility Wind Speed Wind Dir Waves Ship Positions

N0,26 Fumimaru

Last reported at 2014-Aug-25 11:31 UTC. Time now 2014-Aug-29 03:36 UTC.
Position N 35°02' E 139°44'.

Length 39 m; draft 3.6 m.

Type: Ship. MMSI: 431400427.

Date/timePositionNaut miles runAvg speedWind from/ knotsBaromVisibWave heightAir tempDewpointWater temp
2014-Aug-25 11:31N 35°02' E 139°44'5 5.2
2014-Aug-25 10:33N 35°07' E 139°45'5 5.1
2014-Aug-25 09:33N 35°12' E 139°46'6 5.5
2014-Aug-25 08:32N 35°17' E 139°45'6 5.3
2014-Aug-25 07:20N 35°23' E 139°42'4 5.3
2014-Aug-25 06:29N 35°27' E 139°46'5 5.2
2014-Aug-25 05:32N 35°29' E 139°51'5 5.1
2014-Aug-25 04:33N 35°33' E 139°55'5 5.1
2014-Aug-25 03:33N 35°37' E 139°58'3 3.0
2014-Aug-25 02:33N 35°40' E 139°59'8 8.0
2014-Aug-25 01:33N 35°36' E 139°51'3 2.1
2014-Aug-25 00:20N 35°37' E 139°48'0 0.0
2014-Aug-24 23:32N 35°37' E 139°48'0 0.0
2014-Aug-24 22:32N 35°37' E 139°48'0 0.0
2014-Aug-24 21:32N 35°37' E 139°48'0 0.0
2014-Aug-24 20:33N 35°37' E 139°48'0 0.0
2014-Aug-24 19:30N 35°37' E 139°48'0 0.0
2014-Aug-24 18:33N 35°37' E 139°48'0 0.0
2014-Aug-24 17:30N 35°37' E 139°48'0 0.0
2014-Aug-24 16:33N 35°37' E 139°48'0 0.0
2014-Aug-24 15:33N 35°37' E 139°48'0 0.0
2014-Aug-24 14:27N 35°37' E 139°48'0 0.0
2014-Aug-24 13:27N 35°37' E 139°48'0 0.0
2014-Aug-24 12:30N 35°37' E 139°48'0 0.0
2014-Aug-24 11:24N 35°37' E 139°48'0 0.0
2014-Aug-24 10:29N 35°37' E 139°48'0 0.0
2014-Aug-24 09:29N 35°37' E 139°48'0 0.0
2014-Aug-24 08:26N 35°37' E 139°48'0 0.0
2014-Aug-24 07:29N 35°37' E 139°48'0 0.0
2014-Aug-24 06:32N 35°37' E 139°48'0 0.0
2014-Aug-24 05:32N 35°37' E 139°48'0 0.0
2014-Aug-24 04:29N 35°37' E 139°48'0 0.0
2014-Aug-24 03:32N 35°37' E 139°48'0 0.0
2014-Aug-24 02:26N 35°37' E 139°48'0 0.0
2014-Aug-24 01:32N 35°37' E 139°48'0 0.0
2014-Aug-24 00:29N 35°37' E 139°48'0 0.0
2014-Aug-23 23:23N 35°37' E 139°48'0 0.0
2014-Aug-23 22:17N 35°37' E 139°48'0 0.0
2014-Aug-23 21:26N 35°37' E 139°48'0 0.0
2014-Aug-23 20:32N 35°37' E 139°48'0 0.0
2014-Aug-23 19:32N 35°37' E 139°48'0 0.0
2014-Aug-23 03:29N 35°37' E 139°48'0 0.0
2014-Aug-23 02:23N 35°37' E 139°48'0 0.0
2014-Aug-23 01:23N 35°37' E 139°48'0 0.0
2014-Aug-23 00:32N 35°37' E 139°48'0 0.0
2014-Aug-22 23:29N 35°37' E 139°48'0 0.0
2014-Aug-22 22:29N 35°37' E 139°48'0 0.0
2014-Aug-22 21:05N 35°37' E 139°48'0 0.0
2014-Aug-22 20:29N 35°37' E 139°48'0 0.0
2014-Aug-22 19:32N 35°37' E 139°48'0 0.0
2014-Aug-22 18:17N 35°37' E 139°48'0 0.0
2014-Aug-22 17:32N 35°37' E 139°48'0 0.0
2014-Aug-22 16:26N 35°37' E 139°48'0 0.0
2014-Aug-22 15:29N 35°37' E 139°48'0 0.0
2014-Aug-22 14:26N 35°37' E 139°48'0 0.0
2014-Aug-22 13:32N 35°37' E 139°48'0 0.0
2014-Aug-22 12:11N 35°37' E 139°48'0 0.0
2014-Aug-22 11:23N 35°37' E 139°48'0 0.0
2014-Aug-22 10:23N 35°37' E 139°48'0 0.0
2014-Aug-22 09:29N 35°37' E 139°48'0 0.0
2014-Aug-22 07:29N 35°37' E 139°48'0 0.0
2014-Aug-22 06:29N 35°37' E 139°48'0 0.0
2014-Aug-22 05:23N 35°37' E 139°48'0 0.0
2014-Aug-22 04:29N 35°37' E 139°48'0 0.0
2014-Aug-22 03:32N 35°37' E 139°48'0 0.0
2014-Aug-22 02:11N 35°37' E 139°48'0 0.0
2014-Aug-22 01:17N 35°37' E 139°48'0 0.0
2014-Aug-22 00:29N 35°37' E 139°48'0 0.0
2014-Aug-21 22:29N 35°37' E 139°48'0 0.0
2014-Aug-21 21:29N 35°37' E 139°48'0 0.0
2014-Aug-21 20:18N 35°37' E 139°48'0 0.0
2014-Aug-21 19:33N 35°37' E 139°48'0 0.0
2014-Aug-21 18:33N 35°37' E 139°48'0 0.0
2014-Aug-21 17:33N 35°37' E 139°48'0 0.0
2014-Aug-21 16:33N 35°37' E 139°48'0 0.0
2014-Aug-21 15:15N 35°37' E 139°48'0 0.0
2014-Aug-21 14:33N 35°37' E 139°48'0 0.0
2014-Aug-21 13:27N 35°37' E 139°48'0 0.0
2014-Aug-21 11:21N 35°37' E 139°48'0 0.0
2014-Aug-21 10:21N 35°37' E 139°48'0 0.0
2014-Aug-21 09:21N 35°37' E 139°48'0 0.0
2014-Aug-21 08:33N 35°37' E 139°48'0 0.0
2014-Aug-21 07:21N 35°37' E 139°48'0 0.0
2014-Aug-21 06:33N 35°37' E 139°48'0 0.0
2014-Aug-21 05:33N 35°37' E 139°48'0 0.0
2014-Aug-21 04:33N 35°37' E 139°48'0 0.0
2014-Aug-21 03:21N 35°37' E 139°48'1 1.6
2014-Aug-21 02:33N 35°37' E 139°49'9 8.6
2014-Aug-21 01:33N 35°28' E 139°47'9 9.3
2014-Aug-21 00:33N 35°23' E 139°38'3 3.5
2014-Aug-20 23:33N 35°22' E 139°42'6 5.6
2014-Aug-20 22:32N 35°17' E 139°45'5 4.9
2014-Aug-20 21:31N 35°12' E 139°47'5 4.9
2014-Aug-20 20:33N 35°07' E 139°47'6 5.9
2014-Aug-20 19:33N 35°02' E 139°45'2 0.1
2014-Aug-19 13:03N 34°60' E 139°44'610.8
2014-Aug-19 12:32N 35°05' E 139°45'1010.3
2014-Aug-19 11:32N 35°15' E 139°46'10 9.4
2014-Aug-19 10:30N 35°25' E 139°44'9 9.9
2014-Aug-19 09:32N 35°31' E 139°52'7 3.1
2014-Aug-19 07:14N 35°37' E 139°48'3 0.5
2014-Aug-19 01:33N 35°35' E 139°50'6 5.6
2014-Aug-19 00:33N 35°37' E 139°57'4 3.6
2014-Aug-18 23:27N 35°40' E 139°59'4 4.7
2014-Aug-18 22:33N 35°37' E 139°57'7 6.9
2014-Aug-18 21:31N 35°37' E 139°48'0 0.0
2014-Aug-18 20:31N 35°37' E 139°48'0 0.0
2014-Aug-18 19:13N 35°37' E 139°48'0 0.0
2014-Aug-18 18:31N 35°37' E 139°48'0 0.0
2014-Aug-18 17:10N 35°37' E 139°48'0 0.0
2014-Aug-18 16:31N 35°37' E 139°48'0 0.0
2014-Aug-18 15:31N 35°37' E 139°48'0 0.0
2014-Aug-18 14:25N 35°37' E 139°48'0 0.0
2014-Aug-18 13:31N 35°37' E 139°48'0 0.0
2014-Aug-18 12:31N 35°37' E 139°48'0 0.0
2014-Aug-18 11:25N 35°37' E 139°48'0 0.0
2014-Aug-18 10:31N 35°37' E 139°48'0 0.0
2014-Aug-18 09:25N 35°37' E 139°48'0 0.0
2014-Aug-18 08:31N 35°37' E 139°48'0 0.0
2014-Aug-18 07:28N 35°37' E 139°48'0 0.0
2014-Aug-18 06:19N 35°37' E 139°48'0 0.0
2014-Aug-18 05:31N 35°37' E 139°48'0 0.0
2014-Aug-18 04:28N 35°37' E 139°48'0 0.0
2014-Aug-18 03:28N 35°37' E 139°48'0 0.0
2014-Aug-18 02:31N 35°37' E 139°48'0 0.0
2014-Aug-18 01:31N 35°37' E 139°48'0 0.0
2014-Aug-18 00:28N 35°37' E 139°48'0 0.0
2014-Aug-17 18:31N 35°37' E 139°48'0 0.0
2014-Aug-17 17:31N 35°37' E 139°48'0 0.0
2014-Aug-17 16:13N 35°37' E 139°48'0 0.0
2014-Aug-17 15:28N 35°37' E 139°48'0 0.0
2014-Aug-17 14:31N 35°37' E 139°48'0 0.0
2014-Aug-17 13:31N 35°37' E 139°48'0 0.0
2014-Aug-17 12:31N 35°37' E 139°48'0 0.0
2014-Aug-17 11:31N 35°37' E 139°48'0 0.0
2014-Aug-17 10:31N 35°37' E 139°48'0 0.0
2014-Aug-17 09:25N 35°37' E 139°48'0 0.0
2014-Aug-17 08:31N 35°37' E 139°48'0 0.0
2014-Aug-17 07:31N 35°37' E 139°48'0 0.0
2014-Aug-17 06:31N 35°37' E 139°48'0 0.0
2014-Aug-17 05:25N 35°37' E 139°48'0 0.0
2014-Aug-17 04:28N 35°37' E 139°48'0 0.0
2014-Aug-17 03:31N 35°37' E 139°48'0 0.0
2014-Aug-17 02:31N 35°37' E 139°48'0 0.0
2014-Aug-17 01:22N 35°37' E 139°48'0 0.0
2014-Aug-17 00:31N 35°37' E 139°48'0 0.0
2014-Aug-16 23:31N 35°37' E 139°48'0 0.0
2014-Aug-16 22:28N 35°37' E 139°48'0 0.0
2014-Aug-16 21:31N 35°37' E 139°48'0 0.0
2014-Aug-16 20:28N 35°37' E 139°48'0 0.0
2014-Aug-16 19:28N 35°37' E 139°48'0 0.0
2014-Aug-16 18:28N 35°37' E 139°48'0 0.0
2014-Aug-16 17:19N 35°37' E 139°48'0 0.0
2014-Aug-16 16:31N 35°37' E 139°48'0 0.0
2014-Aug-16 15:31N 35°37' E 139°48'0 0.0
2014-Aug-16 14:31N 35°37' E 139°48'0 0.0
2014-Aug-16 13:31N 35°37' E 139°48'0 0.0
2014-Aug-16 12:31N 35°37' E 139°48'0 0.0
2014-Aug-16 11:31N 35°37' E 139°48'0 0.0
2014-Aug-16 10:28N 35°37' E 139°48'0 0.0
2014-Aug-16 09:31N 35°37' E 139°48'0 0.0
2014-Aug-16 08:31N 35°37' E 139°48'0 0.0
2014-Aug-16 07:28N 35°37' E 139°48'0 0.0
2014-Aug-16 06:28N 35°37' E 139°48'0 0.0
2014-Aug-16 05:31N 35°37' E 139°48'0 0.0
2014-Aug-16 04:25N 35°37' E 139°48'0 0.0
2014-Aug-16 03:31N 35°37' E 139°48'0 0.0
2014-Aug-16 02:31N 35°37' E 139°48'0 0.0
2014-Aug-16 01:25N 35°37' E 139°48'0 0.0
2014-Aug-16 00:31N 35°37' E 139°48'0 0.0
2014-Aug-15 23:25N 35°37' E 139°48'0 0.0
2014-Aug-15 22:28N 35°37' E 139°48'0 0.0
2014-Aug-15 21:28N 35°37' E 139°48'0 0.0
2014-Aug-15 20:31N 35°37' E 139°48'0 0.0
2014-Aug-15 19:13N 35°37' E 139°48'0 0.0
2014-Aug-15 18:31N 35°37' E 139°48'0 0.0
2014-Aug-15 17:31N 35°37' E 139°48'0 0.0
2014-Aug-15 16:31N 35°37' E 139°48'0 0.0
2014-Aug-15 15:31N 35°37' E 139°48'0 0.0
2014-Aug-15 14:25N 35°37' E 139°48'0 0.0
2014-Aug-15 13:25N 35°37' E 139°48'0 0.0
2014-Aug-15 12:31N 35°37' E 139°48'  

Dump ship's entire track history